sensor_id;sensor_type;location;lat;lon;timestamp;temperature;humidity
22008;DHT22;11168;56.976;24.168;2023-11-19T00:01:28;-0.40;99.90
22008;DHT22;11168;56.976;24.168;2023-11-19T00:03:55;-0.30;99.90
22008;DHT22;11168;56.976;24.168;2023-11-19T00:06:24;-0.40;99.90
22008;DHT22;11168;56.976;24.168;2023-11-19T00:08:52;-0.30;99.90
22008;DHT22;11168;56.976;24.168;2023-11-19T00:11:19;-0.30;99.90
22008;DHT22;11168;56.976;24.168;2023-11-19T00:13:46;-0.30;99.90
22008;DHT22;11168;56.976;24.168;2023-11-19T00:16:12;-0.30;99.90
22008;DHT22;11168;56.976;24.168;2023-11-19T00:18:39;-0.40;99.90
22008;DHT22;11168;56.976;24.168;2023-11-19T00:21:06;-0.30;99.90
22008;DHT22;11168;56.976;24.168;2023-11-19T00:23:35;-0.30;99.90
22008;DHT22;11168;56.976;24.168;2023-11-19T00:26:02;-0.30;99.90
22008;DHT22;11168;56.976;24.168;2023-11-19T00:28:29;-0.30;99.90
22008;DHT22;11168;56.976;24.168;2023-11-19T00:30:56;-0.30;99.90
22008;DHT22;11168;56.976;24.168;2023-11-19T00:33:23;-0.30;99.90
22008;DHT22;11168;56.976;24.168;2023-11-19T00:35:51;-0.30;99.90
22008;DHT22;11168;56.976;24.168;2023-11-19T00:38:18;-0.30;99.90
22008;DHT22;11168;56.976;24.168;2023-11-19T00:40:45;-0.30;99.90
22008;DHT22;11168;56.976;24.168;2023-11-19T00:43:12;-0.30;99.90
22008;DHT22;11168;56.976;24.168;2023-11-19T00:45:39;-0.40;99.90
22008;DHT22;11168;56.976;24.168;2023-11-19T00:48:06;-0.40;99.90
22008;DHT22;11168;56.976;24.168;2023-11-19T00:50:33;-0.30;99.90
22008;DHT22;11168;56.976;24.168;2023-11-19T00:53:04;-0.40;99.90
22008;DHT22;11168;56.976;24.168;2023-11-19T00:55:31;-0.40;99.90
22008;DHT22;11168;56.976;24.168;2023-11-19T00:57:58;-0.40;99.90
22008;DHT22;11168;56.976;24.168;2023-11-19T01:00:25;-0.40;99.90
22008;DHT22;11168;56.976;24.168;2023-11-19T01:02:54;-0.40;99.90
22008;DHT22;11168;56.976;24.168;2023-11-19T01:05:21;-0.40;99.90
22008;DHT22;11168;56.976;24.168;2023-11-19T01:07:51;-0.50;99.90
22008;DHT22;11168;56.976;24.168;2023-11-19T01:10:21;-0.40;99.90
22008;DHT22;11168;56.976;24.168;2023-11-19T01:12:48;-0.40;99.90
22008;DHT22;11168;56.976;24.168;2023-11-19T01:15:15;-0.40;99.90
22008;DHT22;11168;56.976;24.168;2023-11-19T01:17:42;-0.50;99.90
22008;DHT22;11168;56.976;24.168;2023-11-19T01:20:13;-0.40;99.90
22008;DHT22;11168;56.976;24.168;2023-11-19T01:22:40;-0.50;99.90
22008;DHT22;11168;56.976;24.168;2023-11-19T01:25:07;-0.50;99.90
22008;DHT22;11168;56.976;24.168;2023-11-19T01:27:34;-0.50;99.90
22008;DHT22;11168;56.976;24.168;2023-11-19T01:30:02;-0.50;99.90
22008;DHT22;11168;56.976;24.168;2023-11-19T01:32:32;-0.50;99.90
22008;DHT22;11168;56.976;24.168;2023-11-19T01:34:59;-0.50;99.90
22008;DHT22;11168;56.976;24.168;2023-11-19T01:37:26;-0.50;99.90
22008;DHT22;11168;56.976;24.168;2023-11-19T01:39:53;-0.60;99.90
22008;DHT22;11168;56.976;24.168;2023-11-19T01:42:23;-0.50;99.90
22008;DHT22;11168;56.976;24.168;2023-11-19T01:45:00;-0.50;99.90
22008;DHT22;11168;56.976;24.168;2023-11-19T01:47:28;-0.50;99.90
22008;DHT22;11168;56.976;24.168;2023-11-19T01:49:57;-0.50;99.90
22008;DHT22;11168;56.976;24.168;2023-11-19T01:52:25;-0.50;99.90
22008;DHT22;11168;56.976;24.168;2023-11-19T01:54:54;-0.50;99.90
22008;DHT22;11168;56.976;24.168;2023-11-19T01:57:22;-0.50;99.90
22008;DHT22;11168;56.976;24.168;2023-11-19T01:59:51;-0.50;99.90
22008;DHT22;11168;56.976;24.168;2023-11-19T02:02:19;-0.60;99.90
22008;DHT22;11168;56.976;24.168;2023-11-19T02:04:51;-0.60;99.90
22008;DHT22;11168;56.976;24.168;2023-11-19T02:07:19;-0.60;99.90
22008;DHT22;11168;56.976;24.168;2023-11-19T02:09:47;-0.60;99.90
22008;DHT22;11168;56.976;24.168;2023-11-19T02:12:14;-0.60;99.90
22008;DHT22;11168;56.976;24.168;2023-11-19T02:14:41;-0.60;99.90
22008;DHT22;11168;56.976;24.168;2023-11-19T02:17:25;-0.60;99.90
22008;DHT22;11168;56.976;24.168;2023-11-19T02:19:53;-0.60;99.90
22008;DHT22;11168;56.976;24.168;2023-11-19T02:22:20;-0.60;99.90
22008;DHT22;11168;56.976;24.168;2023-11-19T02:24:50;-0.60;99.90
22008;DHT22;11168;56.976;24.168;2023-11-19T02:27:24;-0.60;99.90
22008;DHT22;11168;56.976;24.168;2023-11-19T02:29:54;-0.60;99.90
22008;DHT22;11168;56.976;24.168;2023-11-19T02:32:21;-0.60;99.90
22008;DHT22;11168;56.976;24.168;2023-11-19T02:34:47;-0.60;99.90
22008;DHT22;11168;56.976;24.168;2023-11-19T02:37:14;-0.60;99.90
22008;DHT22;11168;56.976;24.168;2023-11-19T02:39:41;-0.50;99.90
22008;DHT22;11168;56.976;24.168;2023-11-19T02:42:08;-0.60;99.90
22008;DHT22;11168;56.976;24.168;2023-11-19T02:44:35;-0.60;99.90
22008;DHT22;11168;56.976;24.168;2023-11-19T02:47:02;-0.60;99.90
22008;DHT22;11168;56.976;24.168;2023-11-19T02:49:30;-0.60;99.90
22008;DHT22;11168;56.976;24.168;2023-11-19T02:51:57;-0.60;99.90
22008;DHT22;11168;56.976;24.168;2023-11-19T02:54:26;-0.60;99.90
22008;DHT22;11168;56.976;24.168;2023-11-19T02:56:54;-0.60;99.90
22008;DHT22;11168;56.976;24.168;2023-11-19T02:59:26;-0.60;99.90
22008;DHT22;11168;56.976;24.168;2023-11-19T03:02:05;-0.60;99.90
22008;DHT22;11168;56.976;24.168;2023-11-19T03:04:39;-0.60;99.90
22008;DHT22;11168;56.976;24.168;2023-11-19T03:07:13;-0.60;99.90
22008;DHT22;11168;56.976;24.168;2023-11-19T03:09:40;-0.60;99.90
22008;DHT22;11168;56.976;24.168;2023-11-19T03:12:07;-0.60;99.90
22008;DHT22;11168;56.976;24.168;2023-11-19T03:14:34;-0.60;99.90
22008;DHT22;11168;56.976;24.168;2023-11-19T03:17:02;-0.60;99.90
22008;DHT22;11168;56.976;24.168;2023-11-19T03:19:30;-0.60;99.90
22008;DHT22;11168;56.976;24.168;2023-11-19T03:21:57;-0.60;99.90
22008;DHT22;11168;56.976;24.168;2023-11-19T03:24:26;-0.70;99.90
22008;DHT22;11168;56.976;24.168;2023-11-19T03:26:53;-0.70;99.90
22008;DHT22;11168;56.976;24.168;2023-11-19T03:29:20;-0.70;99.90
22008;DHT22;11168;56.976;24.168;2023-11-19T03:31:47;-0.70;99.90
22008;DHT22;11168;56.976;24.168;2023-11-19T03:34:14;-0.70;99.90
22008;DHT22;11168;56.976;24.168;2023-11-19T03:36:42;-0.70;99.90
22008;DHT22;11168;56.976;24.168;2023-11-19T03:39:10;-0.70;99.90
22008;DHT22;11168;56.976;24.168;2023-11-19T03:41:36;-0.70;99.90
22008;DHT22;11168;56.976;24.168;2023-11-19T03:44:06;-0.70;99.90
22008;DHT22;11168;56.976;24.168;2023-11-19T03:46:33;-0.60;99.90
22008;DHT22;11168;56.976;24.168;2023-11-19T03:49:02;-0.70;99.90
22008;DHT22;11168;56.976;24.168;2023-11-19T03:51:30;-0.70;99.90
22008;DHT22;11168;56.976;24.168;2023-11-19T03:53:58;-0.70;99.90
22008;DHT22;11168;56.976;24.168;2023-11-19T03:56:26;-0.70;99.90
22008;DHT22;11168;56.976;24.168;2023-11-19T03:58:53;-0.70;99.90
22008;DHT22;11168;56.976;24.168;2023-11-19T04:01:20;-0.60;99.90
22008;DHT22;11168;56.976;24.168;2023-11-19T04:03:48;-0.70;99.90
22008;DHT22;11168;56.976;24.168;2023-11-19T04:06:17;-0.70;99.90
22008;DHT22;11168;56.976;24.168;2023-11-19T04:08:44;-0.70;99.90
22008;DHT22;11168;56.976;24.168;2023-11-19T04:11:11;-0.70;99.90
22008;DHT22;11168;56.976;24.168;2023-11-19T04:13:38;-0.70;99.90
22008;DHT22;11168;56.976;24.168;2023-11-19T04:16:05;-0.60;99.90
22008;DHT22;11168;56.976;24.168;2023-11-19T04:18:32;-0.60;99.90
22008;DHT22;11168;56.976;24.168;2023-11-19T04:20:59;-0.60;99.90
22008;DHT22;11168;56.976;24.168;2023-11-19T04:23:26;-0.60;99.90
22008;DHT22;11168;56.976;24.168;2023-11-19T04:25:53;-0.60;99.90
22008;DHT22;11168;56.976;24.168;2023-11-19T04:28:20;-0.70;99.90
22008;DHT22;11168;56.976;24.168;2023-11-19T04:30:47;-0.70;99.90
22008;DHT22;11168;56.976;24.168;2023-11-19T04:33:14;-0.70;99.90
22008;DHT22;11168;56.976;24.168;2023-11-19T04:35:41;-0.70;99.90
22008;DHT22;11168;56.976;24.168;2023-11-19T04:38:08;-0.70;99.90
22008;DHT22;11168;56.976;24.168;2023-11-19T04:40:35;-0.70;99.90
22008;DHT22;11168;56.976;24.168;2023-11-19T04:43:02;-0.70;99.90
22008;DHT22;11168;56.976;24.168;2023-11-19T04:45:29;-0.70;99.90
22008;DHT22;11168;56.976;24.168;2023-11-19T04:47:56;-0.70;99.90
22008;DHT22;11168;56.976;24.168;2023-11-19T04:50:23;-0.70;99.90
22008;DHT22;11168;56.976;24.168;2023-11-19T04:52:50;-0.70;99.90
22008;DHT22;11168;56.976;24.168;2023-11-19T04:55:17;-0.70;99.90
22008;DHT22;11168;56.976;24.168;2023-11-19T04:57:45;-0.70;99.90
22008;DHT22;11168;56.976;24.168;2023-11-19T05:00:12;-0.70;99.90
22008;DHT22;11168;56.976;24.168;2023-11-19T05:02:43;-0.70;99.90
22008;DHT22;11168;56.976;24.168;2023-11-19T05:05:11;-0.70;99.90
22008;DHT22;11168;56.976;24.168;2023-11-19T05:07:38;-0.70;99.90
22008;DHT22;11168;56.976;24.168;2023-11-19T05:10:06;-0.70;99.90
22008;DHT22;11168;56.976;24.168;2023-11-19T05:12:33;-0.70;99.90
22008;DHT22;11168;56.976;24.168;2023-11-19T05:15:01;-0.70;99.90
22008;DHT22;11168;56.976;24.168;2023-11-19T05:17:27;-0.70;99.90
22008;DHT22;11168;56.976;24.168;2023-11-19T05:19:55;-0.80;99.90
22008;DHT22;11168;56.976;24.168;2023-11-19T05:22:22;-0.70;99.90
22008;DHT22;11168;56.976;24.168;2023-11-19T05:24:49;-0.70;99.90
22008;DHT22;11168;56.976;24.168;2023-11-19T05:27:16;-0.70;99.90
22008;DHT22;11168;56.976;24.168;2023-11-19T05:29:43;-0.70;99.90
22008;DHT22;11168;56.976;24.168;2023-11-19T05:32:10;-0.70;99.90
22008;DHT22;11168;56.976;24.168;2023-11-19T05:34:38;-0.70;99.90
22008;DHT22;11168;56.976;24.168;2023-11-19T05:37:18;-0.70;99.90
22008;DHT22;11168;56.976;24.168;2023-11-19T05:39:45;-0.80;99.90
22008;DHT22;11168;56.976;24.168;2023-11-19T05:42:12;-0.70;99.90
22008;DHT22;11168;56.976;24.168;2023-11-19T05:44:39;-0.70;99.90
22008;DHT22;11168;56.976;24.168;2023-11-19T05:47:07;-0.80;99.90
22008;DHT22;11168;56.976;24.168;2023-11-19T05:49:34;-0.70;99.90
22008;DHT22;11168;56.976;24.168;2023-11-19T05:52:02;-0.70;99.90
22008;DHT22;11168;56.976;24.168;2023-11-19T05:54:30;-0.70;99.90
22008;DHT22;11168;56.976;24.168;2023-11-19T05:56:58;-0.70;99.90
22008;DHT22;11168;56.976;24.168;2023-11-19T05:59:25;-0.70;99.90
22008;DHT22;11168;56.976;24.168;2023-11-19T06:01:52;-0.70;99.90
22008;DHT22;11168;56.976;24.168;2023-11-19T06:04:19;-0.70;99.90
22008;DHT22;11168;56.976;24.168;2023-11-19T06:06:47;-0.70;99.90
22008;DHT22;11168;56.976;24.168;2023-11-19T06:09:14;-0.70;99.90
22008;DHT22;11168;56.976;24.168;2023-11-19T06:11:41;-0.70;99.90
22008;DHT22;11168;56.976;24.168;2023-11-19T06:14:08;-0.70;99.90
22008;DHT22;11168;56.976;24.168;2023-11-19T06:16:35;-0.60;99.90
22008;DHT22;11168;56.976;24.168;2023-11-19T06:19:03;-0.70;99.90
22008;DHT22;11168;56.976;24.168;2023-11-19T06:21:31;-0.60;99.90
22008;DHT22;11168;56.976;24.168;2023-11-19T06:23:58;-0.70;99.90
22008;DHT22;11168;56.976;24.168;2023-11-19T06:26:26;-0.70;99.90
22008;DHT22;11168;56.976;24.168;2023-11-19T06:28:54;-0.60;99.90
22008;DHT22;11168;56.976;24.168;2023-11-19T06:31:21;-0.60;99.90
22008;DHT22;11168;56.976;24.168;2023-11-19T06:33:48;-0.60;99.90
22008;DHT22;11168;56.976;24.168;2023-11-19T06:36:15;-0.60;99.90
22008;DHT22;11168;56.976;24.168;2023-11-19T06:38:45;-0.60;99.90
22008;DHT22;11168;56.976;24.168;2023-11-19T06:41:12;-0.60;99.90
22008;DHT22;11168;56.976;24.168;2023-11-19T06:43:39;-0.60;99.90
22008;DHT22;11168;56.976;24.168;2023-11-19T06:46:17;-0.60;99.90
22008;DHT22;11168;56.976;24.168;2023-11-19T06:48:45;-0.60;99.90
22008;DHT22;11168;56.976;24.168;2023-11-19T06:51:12;-0.60;99.90
22008;DHT22;11168;56.976;24.168;2023-11-19T06:53:39;-0.60;99.90
22008;DHT22;11168;56.976;24.168;2023-11-19T06:56:21;-0.60;99.90
22008;DHT22;11168;56.976;24.168;2023-11-19T06:58:49;-0.60;99.90
22008;DHT22;11168;56.976;24.168;2023-11-19T07:01:18;-0.60;99.90
22008;DHT22;11168;56.976;24.168;2023-11-19T07:03:46;-0.60;99.90
22008;DHT22;11168;56.976;24.168;2023-11-19T07:06:14;-0.50;99.90
22008;DHT22;11168;56.976;24.168;2023-11-19T07:08:41;-0.50;99.90
22008;DHT22;11168;56.976;24.168;2023-11-19T07:11:08;-0.50;99.90
22008;DHT22;11168;56.976;24.168;2023-11-19T07:13:37;-0.50;99.90
22008;DHT22;11168;56.976;24.168;2023-11-19T07:16:05;-0.50;99.90
22008;DHT22;11168;56.976;24.168;2023-11-19T07:18:32;-0.50;99.90
22008;DHT22;11168;56.976;24.168;2023-11-19T07:20:59;-0.50;99.90
22008;DHT22;11168;56.976;24.168;2023-11-19T07:23:26;-0.50;99.90
22008;DHT22;11168;56.976;24.168;2023-11-19T07:25:53;-0.40;99.90
22008;DHT22;11168;56.976;24.168;2023-11-19T07:28:20;-0.40;99.90
22008;DHT22;11168;56.976;24.168;2023-11-19T07:30:47;-0.40;99.90
22008;DHT22;11168;56.976;24.168;2023-11-19T07:33:14;-0.40;99.90
22008;DHT22;11168;56.976;24.168;2023-11-19T07:35:42;-0.40;99.90
22008;DHT22;11168;56.976;24.168;2023-11-19T07:38:10;-0.40;99.90
22008;DHT22;11168;56.976;24.168;2023-11-19T07:40:37;-0.40;99.90
22008;DHT22;11168;56.976;24.168;2023-11-19T07:43:04;-0.40;99.90
22008;DHT22;11168;56.976;24.168;2023-11-19T07:45:31;-0.40;99.90
22008;DHT22;11168;56.976;24.168;2023-11-19T07:47:58;-0.40;99.90
22008;DHT22;11168;56.976;24.168;2023-11-19T07:50:25;-0.30;99.90
22008;DHT22;11168;56.976;24.168;2023-11-19T07:52:53;-0.30;99.90
22008;DHT22;11168;56.976;24.168;2023-11-19T07:55:19;-0.30;99.90
22008;DHT22;11168;56.976;24.168;2023-11-19T07:57:48;-0.30;99.90
22008;DHT22;11168;56.976;24.168;2023-11-19T08:00:16;-0.20;99.90
22008;DHT22;11168;56.976;24.168;2023-11-19T08:02:43;-0.20;99.90
22008;DHT22;11168;56.976;24.168;2023-11-19T08:05:10;-0.30;99.90
22008;DHT22;11168;56.976;24.168;2023-11-19T08:07:38;-0.30;99.90
22008;DHT22;11168;56.976;24.168;2023-11-19T08:10:05;-0.30;99.90
22008;DHT22;11168;56.976;24.168;2023-11-19T08:12:37;-0.30;99.90
22008;DHT22;11168;56.976;24.168;2023-11-19T08:15:04;-0.20;99.90
22008;DHT22;11168;56.976;24.168;2023-11-19T08:17:34;-0.20;99.90
22008;DHT22;11168;56.976;24.168;2023-11-19T08:20:02;-0.20;99.90
22008;DHT22;11168;56.976;24.168;2023-11-19T08:22:31;-0.20;99.90
22008;DHT22;11168;56.976;24.168;2023-11-19T08:24:57;-0.20;99.90
22008;DHT22;11168;56.976;24.168;2023-11-19T08:27:25;-0.20;99.90
22008;DHT22;11168;56.976;24.168;2023-11-19T08:29:54;-0.10;99.90
22008;DHT22;11168;56.976;24.168;2023-11-19T08:32:27;-0.20;99.90
22008;DHT22;11168;56.976;24.168;2023-11-19T08:34:54;-0.20;99.90
22008;DHT22;11168;56.976;24.168;2023-11-19T08:37:21;-0.20;99.90
22008;DHT22;11168;56.976;24.168;2023-11-19T08:39:50;-0.10;99.90
22008;DHT22;11168;56.976;24.168;2023-11-19T08:42:17;-0.10;99.90
22008;DHT22;11168;56.976;24.168;2023-11-19T08:44:49;-0.10;99.90
22008;DHT22;11168;56.976;24.168;2023-11-19T08:47:17;-0.20;99.90
22008;DHT22;11168;56.976;24.168;2023-11-19T08:49:52;-0.10;99.90
22008;DHT22;11168;56.976;24.168;2023-11-19T08:52:22;-0.10;99.90
22008;DHT22;11168;56.976;24.168;2023-11-19T08:54:49;-0.10;99.90
22008;DHT22;11168;56.976;24.168;2023-11-19T08:57:16;0.00;99.90
22008;DHT22;11168;56.976;24.168;2023-11-19T08:59:43;0.00;99.90
22008;DHT22;11168;56.976;24.168;2023-11-19T09:02:12;0.10;99.90
22008;DHT22;11168;56.976;24.168;2023-11-19T09:04:39;0.10;99.90
22008;DHT22;11168;56.976;24.168;2023-11-19T09:07:08;0.10;99.90
22008;DHT22;11168;56.976;24.168;2023-11-19T09:09:36;0.10;99.90
22008;DHT22;11168;56.976;24.168;2023-11-19T09:12:03;0.00;99.90
22008;DHT22;11168;56.976;24.168;2023-11-19T09:14:30;0.10;99.90
22008;DHT22;11168;56.976;24.168;2023-11-19T09:16:57;0.10;99.90
22008;DHT22;11168;56.976;24.168;2023-11-19T09:19:25;0.10;99.90
22008;DHT22;11168;56.976;24.168;2023-11-19T09:21:53;0.10;99.90
22008;DHT22;11168;56.976;24.168;2023-11-19T09:24:20;0.20;99.90
22008;DHT22;11168;56.976;24.168;2023-11-19T09:26:47;0.20;99.90
22008;DHT22;11168;56.976;24.168;2023-11-19T09:29:14;0.20;99.90
22008;DHT22;11168;56.976;24.168;2023-11-19T09:31:41;0.10;99.90
22008;DHT22;11168;56.976;24.168;2023-11-19T09:34:08;0.10;99.90
22008;DHT22;11168;56.976;24.168;2023-11-19T09:36:35;0.10;99.90
22008;DHT22;11168;56.976;24.168;2023-11-19T09:39:03;0.10;99.90
22008;DHT22;11168;56.976;24.168;2023-11-19T09:41:31;0.10;99.90
22008;DHT22;11168;56.976;24.168;2023-11-19T09:43:59;0.10;99.90
22008;DHT22;11168;56.976;24.168;2023-11-19T09:46:26;0.20;99.90
22008;DHT22;11168;56.976;24.168;2023-11-19T09:48:53;0.30;99.90
22008;DHT22;11168;56.976;24.168;2023-11-19T09:51:21;0.30;99.90
22008;DHT22;11168;56.976;24.168;2023-11-19T09:53:51;0.30;99.90
22008;DHT22;11168;56.976;24.168;2023-11-19T09:56:18;0.30;99.90
22008;DHT22;11168;56.976;24.168;2023-11-19T09:58:46;0.20;99.90
22008;DHT22;11168;56.976;24.168;2023-11-19T10:01:14;0.20;99.90
22008;DHT22;11168;56.976;24.168;2023-11-19T10:03:46;0.20;99.90
22008;DHT22;11168;56.976;24.168;2023-11-19T10:06:15;0.30;99.90
22008;DHT22;11168;56.976;24.168;2023-11-19T10:08:43;0.30;99.90
22008;DHT22;11168;56.976;24.168;2023-11-19T10:11:10;0.40;99.90
22008;DHT22;11168;56.976;24.168;2023-11-19T10:13:40;0.50;99.90
22008;DHT22;11168;56.976;24.168;2023-11-19T10:16:09;0.50;99.90
22008;DHT22;11168;56.976;24.168;2023-11-19T10:18:36;0.50;99.90
22008;DHT22;11168;56.976;24.168;2023-11-19T10:21:07;0.50;99.90
22008;DHT22;11168;56.976;24.168;2023-11-19T10:23:53;0.60;99.90
22008;DHT22;11168;56.976;24.168;2023-11-19T10:26:21;0.60;99.90
22008;DHT22;11168;56.976;24.168;2023-11-19T10:28:48;0.60;99.90
22008;DHT22;11168;56.976;24.168;2023-11-19T10:31:16;0.60;99.90
22008;DHT22;11168;56.976;24.168;2023-11-19T10:33:44;0.60;99.90
22008;DHT22;11168;56.976;24.168;2023-11-19T10:36:13;0.70;99.90
22008;DHT22;11168;56.976;24.168;2023-11-19T10:38:40;0.70;99.90
22008;DHT22;11168;56.976;24.168;2023-11-19T10:41:07;0.60;99.90
22008;DHT22;11168;56.976;24.168;2023-11-19T10:43:44;0.70;99.90
22008;DHT22;11168;56.976;24.168;2023-11-19T10:46:13;0.80;99.90
22008;DHT22;11168;56.976;24.168;2023-11-19T10:48:40;0.70;99.90
22008;DHT22;11168;56.976;24.168;2023-11-19T10:51:08;0.80;99.90
22008;DHT22;11168;56.976;24.168;2023-11-19T10:53:37;0.80;99.90
22008;DHT22;11168;56.976;24.168;2023-11-19T10:56:10;0.80;99.90
22008;DHT22;11168;56.976;24.168;2023-11-19T10:58:44;0.80;99.90
22008;DHT22;11168;56.976;24.168;2023-11-19T11:01:19;0.90;99.90
22008;DHT22;11168;56.976;24.168;2023-11-19T11:03:47;0.80;99.90
22008;DHT22;11168;56.976;24.168;2023-11-19T11:06:18;0.80;99.90
22008;DHT22;11168;56.976;24.168;2023-11-19T11:08:46;0.80;99.90
22008;DHT22;11168;56.976;24.168;2023-11-19T11:11:15;0.80;99.90
22008;DHT22;11168;56.976;24.168;2023-11-19T11:13:44;0.80;99.90
22008;DHT22;11168;56.976;24.168;2023-11-19T11:16:13;0.80;99.90
22008;DHT22;11168;56.976;24.168;2023-11-19T11:18:41;0.90;99.90
22008;DHT22;11168;56.976;24.168;2023-11-19T11:21:11;0.90;99.90
22008;DHT22;11168;56.976;24.168;2023-11-19T11:26:48;0.90;99.90
22008;DHT22;11168;56.976;24.168;2023-11-19T11:29:51;0.90;99.90
22008;DHT22;11168;56.976;24.168;2023-11-19T11:32:39;0.80;99.90
22008;DHT22;11168;56.976;24.168;2023-11-19T11:35:49;0.80;99.90
22008;DHT22;11168;56.976;24.168;2023-11-19T11:38:22;0.90;99.90
22008;DHT22;11168;56.976;24.168;2023-11-19T11:43:50;1.00;99.90
22008;DHT22;11168;56.976;24.168;2023-11-19T11:49:07;0.80;99.90
22008;DHT22;11168;56.976;24.168;2023-11-19T11:54:25;0.90;99.90
22008;DHT22;11168;56.976;24.168;2023-11-19T11:57:08;0.90;99.90
22008;DHT22;11168;56.976;24.168;2023-11-19T11:59:43;1.00;99.90
22008;DHT22;11168;56.976;24.168;2023-11-19T12:02:13;0.80;99.90
22008;DHT22;11168;56.976;24.168;2023-11-19T12:04:41;0.80;99.90
22008;DHT22;11168;56.976;24.168;2023-11-19T12:07:20;0.90;99.90
22008;DHT22;11168;56.976;24.168;2023-11-19T12:09:54;0.80;99.90
22008;DHT22;11168;56.976;24.168;2023-11-19T12:12:32;0.80;99.90
22008;DHT22;11168;56.976;24.168;2023-11-19T12:15:00;0.80;99.90
22008;DHT22;11168;56.976;24.168;2023-11-19T12:17:38;0.80;99.90
22008;DHT22;11168;56.976;24.168;2023-11-19T12:20:07;0.80;99.90
22008;DHT22;11168;56.976;24.168;2023-11-19T12:22:39;0.80;99.90
22008;DHT22;11168;56.976;24.168;2023-11-19T12:25:07;0.90;99.90
22008;DHT22;11168;56.976;24.168;2023-11-19T12:27:41;0.90;99.90
22008;DHT22;11168;56.976;24.168;2023-11-19T12:30:08;0.80;99.90
22008;DHT22;11168;56.976;24.168;2023-11-19T12:32:42;0.70;99.90
22008;DHT22;11168;56.976;24.168;2023-11-19T12:35:10;0.70;99.90
22008;DHT22;11168;56.976;24.168;2023-11-19T12:37:43;0.80;99.90
22008;DHT22;11168;56.976;24.168;2023-11-19T12:40:24;0.80;99.90
22008;DHT22;11168;56.976;24.168;2023-11-19T12:42:52;0.80;99.90
22008;DHT22;11168;56.976;24.168;2023-11-19T12:45:21;0.90;99.90
22008;DHT22;11168;56.976;24.168;2023-11-19T12:48:04;0.90;99.90
22008;DHT22;11168;56.976;24.168;2023-11-19T12:50:53;1.00;99.90
22008;DHT22;11168;56.976;24.168;2023-11-19T12:53:21;1.00;99.90
22008;DHT22;11168;56.976;24.168;2023-11-19T12:55:49;0.90;99.90
22008;DHT22;11168;56.976;24.168;2023-11-19T12:58:33;1.00;99.90
22008;DHT22;11168;56.976;24.168;2023-11-19T13:01:03;0.90;99.90
22008;DHT22;11168;56.976;24.168;2023-11-19T13:03:35;0.90;99.90
22008;DHT22;11168;56.976;24.168;2023-11-19T13:06:07;0.90;99.90
22008;DHT22;11168;56.976;24.168;2023-11-19T13:08:50;0.90;99.90
22008;DHT22;11168;56.976;24.168;2023-11-19T13:11:35;0.90;99.90
22008;DHT22;11168;56.976;24.168;2023-11-19T13:14:04;0.90;99.90
22008;DHT22;11168;56.976;24.168;2023-11-19T13:16:32;0.80;99.90
22008;DHT22;11168;56.976;24.168;2023-11-19T13:18:59;0.80;99.90
22008;DHT22;11168;56.976;24.168;2023-11-19T13:21:27;0.80;99.90
22008;DHT22;11168;56.976;24.168;2023-11-19T13:23:55;0.70;99.90
22008;DHT22;11168;56.976;24.168;2023-11-19T13:26:22;0.70;99.90
22008;DHT22;11168;56.976;24.168;2023-11-19T13:28:49;0.70;99.90
22008;DHT22;11168;56.976;24.168;2023-11-19T13:31:16;0.70;99.90
22008;DHT22;11168;56.976;24.168;2023-11-19T13:33:44;0.70;99.90
22008;DHT22;11168;56.976;24.168;2023-11-19T13:36:11;0.60;99.90
22008;DHT22;11168;56.976;24.168;2023-11-19T13:38:42;0.60;99.90
22008;DHT22;11168;56.976;24.168;2023-11-19T13:41:11;0.50;99.90
22008;DHT22;11168;56.976;24.168;2023-11-19T13:43:39;0.50;99.90
22008;DHT22;11168;56.976;24.168;2023-11-19T13:46:06;0.50;99.90
22008;DHT22;11168;56.976;24.168;2023-11-19T13:48:36;0.50;99.90
22008;DHT22;11168;56.976;24.168;2023-11-19T13:51:03;0.40;99.90
22008;DHT22;11168;56.976;24.168;2023-11-19T13:53:30;0.40;99.90
22008;DHT22;11168;56.976;24.168;2023-11-19T13:55:57;0.30;99.90
22008;DHT22;11168;56.976;24.168;2023-11-19T13:58:24;0.30;99.90
22008;DHT22;11168;56.976;24.168;2023-11-19T14:00:51;0.30;99.90
22008;DHT22;11168;56.976;24.168;2023-11-19T14:03:18;0.20;99.90
22008;DHT22;11168;56.976;24.168;2023-11-19T14:05:45;0.20;99.90
22008;DHT22;11168;56.976;24.168;2023-11-19T14:08:13;0.20;99.90
22008;DHT22;11168;56.976;24.168;2023-11-19T14:10:51;0.10;99.90
22008;DHT22;11168;56.976;24.168;2023-11-19T14:13:19;0.10;99.90
22008;DHT22;11168;56.976;24.168;2023-11-19T14:15:46;0.10;99.90
22008;DHT22;11168;56.976;24.168;2023-11-19T14:18:16;0.10;99.90
22008;DHT22;11168;56.976;24.168;2023-11-19T14:20:43;0.10;99.90
22008;DHT22;11168;56.976;24.168;2023-11-19T14:23:11;0.00;99.90
22008;DHT22;11168;56.976;24.168;2023-11-19T14:25:38;0.00;99.90
22008;DHT22;11168;56.976;24.168;2023-11-19T14:28:05;0.00;99.90
22008;DHT22;11168;56.976;24.168;2023-11-19T14:30:33;-0.10;99.90
22008;DHT22;11168;56.976;24.168;2023-11-19T14:33:01;-0.20;99.90
22008;DHT22;11168;56.976;24.168;2023-11-19T14:35:30;-0.20;99.90
22008;DHT22;11168;56.976;24.168;2023-11-19T14:37:59;-0.30;99.90
22008;DHT22;11168;56.976;24.168;2023-11-19T14:40:26;-0.30;99.90
22008;DHT22;11168;56.976;24.168;2023-11-19T14:42:56;-0.40;99.90
22008;DHT22;11168;56.976;24.168;2023-11-19T14:45:23;-0.40;99.90
22008;DHT22;11168;56.976;24.168;2023-11-19T14:47:50;-0.40;99.90
22008;DHT22;11168;56.976;24.168;2023-11-19T14:50:17;-0.50;99.90
22008;DHT22;11168;56.976;24.168;2023-11-19T14:52:44;-0.50;99.90
22008;DHT22;11168;56.976;24.168;2023-11-19T14:55:11;-0.50;99.90
22008;DHT22;11168;56.976;24.168;2023-11-19T14:57:38;-0.50;99.90
22008;DHT22;11168;56.976;24.168;2023-11-19T15:00:06;-0.60;99.90
22008;DHT22;11168;56.976;24.168;2023-11-19T15:02:42;-0.70;99.90
22008;DHT22;11168;56.976;24.168;2023-11-19T15:05:09;-0.70;99.90
22008;DHT22;11168;56.976;24.168;2023-11-19T15:07:37;-0.70;99.90
22008;DHT22;11168;56.976;24.168;2023-11-19T15:10:04;-0.70;99.90
22008;DHT22;11168;56.976;24.168;2023-11-19T15:12:37;-0.80;99.90
22008;DHT22;11168;56.976;24.168;2023-11-19T15:15:07;-0.80;99.90
22008;DHT22;11168;56.976;24.168;2023-11-19T15:17:36;-0.80;99.90
22008;DHT22;11168;56.976;24.168;2023-11-19T15:20:04;-0.80;99.90
22008;DHT22;11168;56.976;24.168;2023-11-19T15:22:31;-0.90;99.90
22008;DHT22;11168;56.976;24.168;2023-11-19T15:24:58;-0.80;99.90
22008;DHT22;11168;56.976;24.168;2023-11-19T15:27:25;-0.90;99.90
22008;DHT22;11168;56.976;24.168;2023-11-19T15:29:52;-0.90;99.90
22008;DHT22;11168;56.976;24.168;2023-11-19T15:32:19;-1.00;99.90
22008;DHT22;11168;56.976;24.168;2023-11-19T15:34:46;-1.00;99.90
22008;DHT22;11168;56.976;24.168;2023-11-19T15:37:13;-1.00;99.90
22008;DHT22;11168;56.976;24.168;2023-11-19T15:39:41;-1.10;99.90
22008;DHT22;11168;56.976;24.168;2023-11-19T15:42:08;-1.10;99.90